2018/09/18 14:30 VVNB 181430Z VRB02KT 9999 FEW029 BKN034 27/27 Q1011 NOSIG
2018/09/18 14:30 VVDN 181430Z 17003KT 110V220 9999 FEW013 SCT060 29/26 Q1011 NOSIG
2018/09/18 14:30 VVTS 181430Z 29004KT 260V330 9999 FEW015 SCT040 27/25 Q1010 NOSIG
2018/09/18 14:30 VVPB 181430Z 25003KT 9999 FEW017 BKN060 26/26 Q1011 NOSIG

Powered by MinhViet JSC.